Monday, December 17, 2018, 9:49 AM GMT
Back to Local

CWSS, St. Stephen, N. B.

Location: , , Canada Lat: 45.217
Local Time: 9:49 AM GMT ( 9:49 GMT) Lon: -67.25
Time Zone: GMT Elev: 85 ft

Show me the last for .
Show Coded

Time T Td Feel RH Dir Speed Gust Alt SLP Vis Weather Sky Remarks
2018-12-17 09:00 32 30 25 92 60° 8 - - 29.80 0 None
2018-12-17 08:00 33 28 26 83 60° 8 - - 29.83 0 None
2018-12-17 07:00 32 28 26 85 60° 6 - - 29.87 0 None
2018-12-17 06:00 31 27 28 85 70° 3 - - 29.91 0 None
2018-12-17 05:00 32 27 26 82 60° 6 - - 29.93 0 None
2018-12-17 04:00 31 27 26 85 40° 5 - - 29.98 0 None
2018-12-17 03:00 31 27 27 84 80° 3 - - 30.02 0 None
2018-12-17 02:00 31 27 26 82 80° 6 - - 30.03 0 None
2018-12-17 01:00 30 27 26 88 110° 3 - - 30.07 0 None
2018-12-17 00:00 27 26 - 93 130° 2 - - 30.09 0 None
2018-12-16 23:00 27 25 - 91 40° 1 - - 30.11 0 None
2018-12-16 22:00 29 26 - 90 180° 1 - - 30.13 0 None
2018-12-16 21:00 34 28 - 78 - Calm - - 30.13 0 None
2018-12-16 20:00 37 28 - 70 60° 2 - - 30.14 0 None
2018-12-16 19:00 40 28 - 62 190° 2 - - 30.15 0 None
2018-12-16 18:00 40 28 38 62 200° 3 - - 30.16 0 None
2018-12-16 17:00 38 27 - 64 140° 2 - - 30.19 0 None
2018-12-16 16:00 37 29 - 72 - Calm - - 30.21 0 None
2018-12-16 15:00 33 28 - 80 250° 1 - - 30.27 0 None
2018-12-16 14:00 29 26 25 88 130° 3 - - 30.26 0 None
2018-12-16 13:00 22 20 - 95 320° 1 - - 30.24 0 None
2018-12-16 12:00 17 15 - 91 280° 1 - - 30.25 0 None
2018-12-16 11:00 18 16 - 92 - Calm - - 30.25 0 None
2018-12-16 10:00 18 16 - 92 320° 1 - - 30.24 0 None

Support USWX by starting your Amazon purchase here.